Time;durP1;ratioP1;P1;durP2;ratioP2;P2;SDS_P1;SDS_P2;PMS_P1;PMS_P2;Temp;Humidity;BMP_temperature;BMP_pressure;BME280_temperature;BME280_humidity;BME280_pressure;Samples;Min_cycle;Max_cycle;Signal;HPM_P1;HPM_P2
2023/03/16 00:01:21;;;;;;;;;5.50;5.50;;;;;9.88;46.92;101206.78;5073326;28;46042;-70
2023/03/16 00:03:49;;;;;;;;;9.25;7.00;;;;;9.89;46.56;101208.53;5071740;27;45403;-69
2023/03/16 00:06:15;;;;;;;;;6.25;6.25;;;;;9.72;46.86;101187.41;5076625;28;45313;-69
2023/03/16 00:08:42;;;;;;;;;11.25;6.00;;;;;9.76;46.83;101205.75;5075769;27;45269;-69
2023/03/16 00:11:11;;;;;;;;;6.25;4.75;;;;;9.76;46.80;101197.91;5071290;28;45560;-70
2023/03/16 00:13:37;;;;;;;;;6.50;5.25;;;;;9.72;47.03;101190.00;5073597;28;45577;-69
2023/03/16 00:16:03;;;;;;;;;8.50;5.25;;;;;9.70;47.27;101187.38;5051291;28;45597;-69
2023/03/16 00:18:38;;;;;;;;;5.75;5.50;;;;;9.65;47.29;101196.03;5071100;27;45463;-69
2023/03/16 00:21:04;;;;;;;;;7.00;5.75;;;;;9.54;47.58;101174.97;5059470;28;45375;-69
2023/03/16 00:23:34;;;;;;;;;7.25;5.50;;;;;9.58;47.80;101178.50;5050631;28;45492;-68
2023/03/16 00:26:08;;;;;;;;;4.75;4.00;;;;;9.59;47.77;101175.91;5064263;28;45801;-71
2023/03/16 00:28:35;;;;;;;;;5.00;5.00;;;;;9.57;47.53;101161.06;5062405;27;45711;-70
2023/03/16 00:31:06;;;;;;;;;4.75;4.50;;;;;9.68;48.05;101180.34;5064405;28;45525;-70
2023/03/16 00:33:34;;;;;;;;;7.75;5.25;;;;;9.66;48.15;101164.66;5061232;28;45634;-70
2023/03/16 00:36:01;;;;;;;;;6.00;6.00;;;;;9.55;47.90;101167.13;5047453;28;45372;-70
2023/03/16 00:38:33;;;;;;;;;8.75;7.00;;;;;9.59;47.80;101162.84;5042205;28;45532;-70
2023/03/16 00:41:02;;;;;;;;;6.25;6.25;;;;;9.63;48.18;101179.44;5066680;28;45517;-70
2023/03/16 00:43:39;;;;;;;;;9.25;7.25;;;;;9.52;48.33;101159.25;5058629;28;45433;-72
2023/03/16 00:46:10;;;;;;;;;9.00;6.00;;;;;9.44;48.19;101139.09;5060268;27;45493;-70
2023/03/16 00:48:41;;;;;;;;;5.75;5.25;;;;;9.62;48.50;101170.72;5078169;27;45574;-70
2023/03/16 00:51:11;;;;;;;;;8.00;6.00;;;;;9.58;48.30;101155.81;5078521;27;45449;-70
2023/03/16 00:53:39;;;;;;;;;10.25;8.00;;;;;9.52;48.31;101151.41;5078708;28;45495;-70
2023/03/16 00:56:05;;;;;;;;;7.50;6.00;;;;;9.49;48.32;101143.53;5060970;28;45500;-70
2023/03/16 00:58:35;;;;;;;;;11.25;8.50;;;;;9.40;48.89;101132.09;5075194;28;45644;-70
2023/03/16 01:01:10;;;;;;;;;11.50;8.75;;;;;9.19;48.63;101104.78;5056349;28;45904;-71
2023/03/16 01:03:36;;;;;;;;;13.50;8.50;;;;;9.32;49.01;101138.09;5077258;27;45534;-70
2023/03/16 01:06:08;;;;;;;;;8.50;7.50;;;;;9.34;48.83;101161.63;5074168;28;45436;-70
2023/03/16 01:08:35;;;;;;;;;9.00;8.25;;;;;9.32;48.97;101165.94;5073922;28;46654;-70
2023/03/16 01:11:05;;;;;;;;;9.00;8.00;;;;;9.27;48.84;101139.72;5073819;28;45501;-70
2023/03/16 01:13:31;;;;;;;;;8.50;7.00;;;;;9.39;48.77;101165.16;5074562;28;45292;-71
2023/03/16 01:15:58;;;;;;;;;11.75;6.00;;;;;9.40;48.98;101163.44;5076805;28;45315;-71
2023/03/16 01:18:24;;;;;;;;;9.50;7.50;;;;;9.28;48.70;101138.88;5073736;27;45366;-71
2023/03/16 01:20:50;;;;;;;;;11.25;9.00;;;;;9.54;48.81;101168.00;5057131;28;45485;-71
2023/03/16 01:23:17;;;;;;;;;10.00;8.75;;;;;9.49;48.70;101146.16;5056409;28;45449;-71
2023/03/16 01:25:42;;;;;;;;;10.25;9.25;;;;;9.40;48.88;101134.69;5055280;28;45527;-71
2023/03/16 01:28:09;;;;;;;;;9.25;8.25;;;;;9.19;49.39;101096.94;5058851;28;46565;-70
2023/03/16 01:30:35;;;;;;;;;8.50;7.00;;;;;9.23;49.52;101118.75;5055449;28;45827;-71
2023/03/16 01:33:00;;;;;;;;;8.50;8.50;;;;;9.20;49.42;101116.97;5055724;28;45477;-71
2023/03/16 01:35:26;;;;;;;;;9.00;8.00;;;;;9.19;49.31;101109.16;5073914;28;45405;-70
2023/03/16 01:37:51;;;;;;;;;8.75;8.75;;;;;9.10;49.62;101110.75;5073723;28;45520;-72
2023/03/16 01:40:17;;;;;;;;;10.50;8.25;;;;;9.05;49.96;101109.81;5077027;28;45542;-70
2023/03/16 01:42:50;;;;;;;;;15.25;8.25;;;;;9.08;49.83;101108.97;5052483;28;45650;-71
2023/03/16 01:45:54;;;;;;;;;11.25;9.75;;;;;9.02;50.28;101104.56;5073545;28;45502;-70
2023/03/16 01:48:23;;;;;;;;;13.75;12.75;;;;;8.88;50.23;101112.19;5073769;28;46005;-70
2023/03/16 01:50:52;;;;;;;;;12.50;8.50;;;;;8.83;50.54;101100.78;5058777;28;45681;-71
2023/03/16 01:53:21;;;;;;;;;9.00;8.00;;;;;8.84;50.31;101114.72;5058759;28;45611;-71
2023/03/16 01:55:54;;;;;;;;;8.50;8.00;;;;;8.86;50.40;101099.97;5035566;28;45664;-71
2023/03/16 01:58:20;;;;;;;;;8.75;8.25;;;;;8.84;50.62;101104.28;5068945;27;45489;-71
2023/03/16 02:00:47;;;;;;;;;8.50;8.50;;;;;8.78;50.49;101097.25;5055295;28;45623;-70
2023/03/16 02:03:20;;;;;;;;;9.50;8.00;;;;;8.85;50.10;101095.56;5055404;28;45526;-69
2023/03/16 02:05:56;;;;;;;;;8.50;7.75;;;;;8.85;49.97;101095.56;5059214;28;45525;-70
2023/03/16 02:08:24;;;;;;;;;9.50;6.25;;;;;8.64;50.27;101049.16;5073436;27;46659;-71
2023/03/16 02:10:53;;;;;;;;;8.00;8.00;;;;;8.79;50.27;101085.94;5055062;28;45515;-71
2023/03/16 02:13:22;;;;;;;;;6.00;6.00;;;;;8.68;50.16;101053.53;5076253;27;45421;-70
2023/03/16 02:15:47;;;;;;;;;8.75;5.75;;;;;8.85;50.01;101072.97;5056169;28;45471;-69
2023/03/16 02:18:14;;;;;;;;;11.00;6.75;;;;;8.91;50.05;101075.66;5055006;27;45741;-71
2023/03/16 02:21:11;;;;;;;;;11.25;7.00;;;;;8.87;50.33;101075.59;5073023;28;45477;-71
2023/03/16 02:23:37;;;;;;;;;7.00;7.00;;;;;8.83;50.09;101069.44;5057886;28;45821;-70
2023/03/16 02:26:23;;;;;;;;;9.75;7.00;;;;;8.83;49.82;101077.28;5077923;28;45363;-70
2023/03/16 02:29:03;;;;;;;;;10.25;9.00;;;;;8.80;49.68;101072.00;5057804;28;46617;-71
2023/03/16 02:31:29;;;;;;;;;10.00;7.00;;;;;8.79;49.47;101069.38;5064427;28;45468;-69
2023/03/16 02:33:57;;;;;;;;;8.25;7.25;;;;;8.83;49.81;101073.81;5058885;28;45883;-71
2023/03/16 02:36:26;;;;;;;;;13.00;8.25;;;;;8.79;49.38;101070.25;5077087;28;45769;-71
2023/03/16 02:38:52;;;;;;;;;3.25;1.75;;;;;8.69;49.34;101061.41;5076952;27;46487;-70
2023/03/16 02:41:20;;;;;;;;;9.75;6.00;;;;;8.62;49.57;101046.50;5062338;28;45429;-71
2023/03/16 02:44:03;;;;;;;;;8.75;7.50;;;;;8.74;49.50;101063.22;5079430;28;45512;-72
2023/03/16 02:46:34;;;;;;;;;10.25;8.50;;;;;8.63;49.67;101050.84;5073784;28;45746;-71
2023/03/16 02:49:23;;;;;;;;;12.50;9.00;;;;;8.66;49.87;101056.16;5058535;28;46144;-71
2023/03/16 02:51:51;;;;;;;;;6.50;6.50;;;;;8.53;49.40;101030.69;5058181;28;45418;-71
2023/03/16 02:54:18;;;;;;;;;9.75;8.00;;;;;8.69;49.41;101044.88;5076412;28;45560;-71
2023/03/16 02:56:43;;;;;;;;;7.25;7.25;;;;;8.65;49.55;101033.50;5058210;28;45358;-71
2023/03/16 02:59:12;;;;;;;;;7.00;5.00;;;;;8.68;49.32;101037.88;5057863;28;47599;-71
2023/03/16 03:01:38;;;;;;;;;9.50;7.00;;;;;8.62;49.49;101023.00;5058151;28;45443;-69
2023/03/16 03:04:12;;;;;;;;;9.75;7.25;;;;;8.54;49.32;101014.16;5076355;28;45438;-73
2023/03/16 03:06:40;;;;;;;;;10.75;7.75;;;;;8.54;49.06;101019.38;5057131;28;45386;-72
2023/03/16 03:09:06;;;;;;;;;7.75;7.25;;;;;8.49;49.61;101021.06;5057333;28;45449;-69
2023/03/16 03:11:33;;;;;;;;;11.75;7.00;;;;;8.34;49.91;101011.25;5073859;28;45495;-70
2023/03/16 03:14:08;;;;;;;;;5.75;5.75;;;;;8.43;49.86;101024.47;5067037;27;45393;-69
2023/03/16 03:16:35;;;;;;;;;10.50;8.25;;;;;8.43;50.11;101020.97;5052578;27;45461;-70
2023/03/16 03:19:04;;;;;;;;;7.00;5.50;;;;;8.40;50.02;101014.00;5075484;28;45405;-69
2023/03/16 03:21:30;;;;;;;;;6.50;6.50;;;;;8.38;50.29;101010.44;5075839;28;45425;-69
2023/03/16 03:23:55;;;;;;;;;4.50;4.50;;;;;8.40;50.18;101011.38;5059801;28;45377;-70
2023/03/16 03:26:21;;;;;;;;;7.25;5.75;;;;;8.32;50.22;101002.50;5071571;28;45361;-71
2023/03/16 03:28:47;;;;;;;;;12.00;9.25;;;;;8.37;50.08;101015.63;5071181;28;46529;-71
2023/03/16 03:31:17;;;;;;;;;7.50;6.50;;;;;8.35;50.04;101026.06;5057772;28;45386;-71
2023/03/16 03:33:43;;;;;;;;;9.00;9.00;;;;;8.28;50.28;101025.06;5077881;28;45478;-70
2023/03/16 03:36:10;;;;;;;;;6.25;5.75;;;;;8.31;50.16;101024.25;5075660;27;45638;-69
2023/03/16 03:38:36;;;;;;;;;4.75;3.75;;;;;8.37;50.12;101026.94;5056599;28;45527;-70
2023/03/16 03:41:02;;;;;;;;;6.75;6.25;;;;;8.39;50.55;101012.19;5056941;28;45516;-71
2023/03/16 03:43:28;;;;;;;;;7.00;5.50;;;;;8.42;50.14;101014.00;5075552;27;45328;-70
2023/03/16 03:45:59;;;;;;;;;6.25;5.25;;;;;8.39;50.23;100998.25;5057012;28;45549;-71
2023/03/16 03:48:26;;;;;;;;;9.25;7.50;;;;;8.40;51.03;101011.38;5075305;28;45446;-69
2023/03/16 03:50:52;;;;;;;;;9.25;7.00;;;;;8.41;50.36;101015.72;5056481;28;45477;-70
2023/03/16 03:53:18;;;;;;;;;8.00;6.25;;;;;8.35;50.28;101014.72;5077933;28;45374;-70
2023/03/16 03:55:44;;;;;;;;;7.75;6.50;;;;;8.32;50.75;101007.72;5057536;28;45762;-70
2023/03/16 03:58:10;;;;;;;;;9.00;7.50;;;;;8.23;50.83;100992.81;5075290;28;46124;-70
2023/03/16 04:00:36;;;;;;;;;10.25;8.50;;;;;8.24;50.83;100999.78;5061237;28;45525;-69
2023/03/16 04:03:02;;;;;;;;;14.00;9.50;;;;;8.15;51.41;100991.81;5079275;27;45610;-69
2023/03/16 04:05:27;;;;;;;;;8.50;7.25;;;;;7.98;50.87;100965.44;5079745;28;45382;-68
2023/03/16 04:07:56;;;;;;;;;5.50;5.50;;;;;8.05;51.11;100985.56;5076261;28;46299;-70
2023/03/16 04:10:24;;;;;;;;;12.00;8.75;;;;;7.96;51.14;100980.19;5057710;28;45857;-70
2023/03/16 04:12:50;;;;;;;;;8.75;5.25;;;;;7.83;51.20;100965.19;5060842;28;45594;-70
2023/03/16 04:15:15;;;;;;;;;11.25;9.50;;;;;7.89;51.05;100980.06;5079696;28;45461;-70
2023/03/16 04:17:44;;;;;;;;;12.25;8.00;;;;;7.87;51.34;100982.63;5079304;27;45983;-70
2023/03/16 04:20:17;;;;;;;;;10.50;8.50;;;;;7.70;51.52;100966.72;5079313;27;45361;-70
2023/03/16 04:22:44;;;;;;;;;7.00;7.00;;;;;7.75;51.90;100969.41;5075841;27;45386;-71
2023/03/16 04:25:13;;;;;;;;;7.50;7.25;;;;;7.76;51.69;100978.97;5056506;27;45536;-69
2023/03/16 04:27:40;;;;;;;;;9.00;7.25;;;;;7.64;51.43;100964.88;5060819;28;46833;-70
2023/03/16 04:30:11;;;;;;;;;8.50;6.50;;;;;7.70;51.56;100971.06;5058734;28;45457;-71
2023/03/16 04:32:38;;;;;;;;;11.00;8.50;;;;;7.64;51.41;100964.88;5056006;28;45612;-70
2023/03/16 04:35:05;;;;;;;;;8.50;7.00;;;;;7.54;51.96;100960.34;5075046;27;45643;-71
2023/03/16 04:37:31;;;;;;;;;11.00;8.00;;;;;7.51;52.24;100956.81;5055988;28;48271;-71
2023/03/16 04:39:57;;;;;;;;;8.00;7.50;;;;;7.51;51.73;100960.28;5057221;28;45831;-70
2023/03/16 04:42:26;;;;;;;;;9.75;9.50;;;;;7.24;52.54;100934.63;5058417;28;45348;-70
2023/03/16 04:44:52;;;;;;;;;11.25;9.50;;;;;7.33;52.44;100947.81;5077570;28;45390;-70
2023/03/16 04:47:24;;;;;;;;;12.25;5.50;;;;;7.28;52.65;100940.75;5074867;28;46117;-72
2023/03/16 04:49:52;;;;;;;;;9.50;8.25;;;;;7.35;52.21;100953.91;5073784;27;45431;-70
2023/03/16 04:52:19;;;;;;;;;9.50;6.75;;;;;7.30;52.31;100955.56;5056291;28;45587;-70
2023/03/16 04:54:47;;;;;;;;;7.00;7.00;;;;;7.28;52.01;100956.38;5075164;28;45318;-70
2023/03/16 04:57:17;;;;;;;;;7.75;4.00;;;;;7.18;52.52;100943.19;5074861;28;45441;-73
2023/03/16 04:59:43;;;;;;;;;10.50;7.00;;;;;7.14;52.79;100938.78;5074499;28;45468;-70
2023/03/16 05:02:09;;;;;;;;;7.50;7.50;;;;;7.15;52.43;100947.47;5056701;28;45579;-70
2023/03/16 05:04:34;;;;;;;;;6.75;6.75;;;;;7.09;52.62;100936.91;5056186;28;45367;-71
2023/03/16 05:07:00;;;;;;;;;10.75;8.00;;;;;7.12;52.60;100942.19;5074321;28;45464;-70
2023/03/16 05:09:25;;;;;;;;;10.75;6.75;;;;;7.15;52.50;100948.34;5060137;28;45394;-71
2023/03/16 05:11:51;;;;;;;;;9.00;6.75;;;;;7.06;52.46;100937.72;5076970;27;45455;-70
2023/03/16 05:14:16;;;;;;;;;8.25;7.00;;;;;7.00;52.63;100924.63;5055705;28;45490;-69
2023/03/16 05:16:42;;;;;;;;;9.25;6.00;;;;;7.04;52.70;100936.81;5073555;28;46072;-70
2023/03/16 05:19:07;;;;;;;;;7.75;6.50;;;;;6.87;52.73;100912.19;5059170;28;45464;-70
2023/03/16 05:21:34;;;;;;;;;7.25;5.50;;;;;6.80;52.52;100887.75;5077736;28;45418;-70
2023/03/16 05:24:00;;;;;;;;;8.25;7.25;;;;;6.99;52.35;100921.09;5074000;27;46001;-71
2023/03/16 05:26:25;;;;;;;;;8.75;6.25;;;;;6.88;52.50;100907.03;5055587;28;47555;-70
2023/03/16 05:28:51;;;;;;;;;6.00;6.00;;;;;6.86;52.77;100902.59;5055880;28;45500;-70
2023/03/16 05:31:17;;;;;;;;;9.75;6.00;;;;;7.03;52.68;100932.47;5074181;28;45826;-70
2023/03/16 05:33:44;;;;;;;;;8.50;7.25;;;;;7.07;52.53;100926.50;5073596;28;45481;-70
2023/03/16 05:36:10;;;;;;;;;7.00;6.50;;;;;7.04;52.43;100912.50;5074231;28;45615;-70
2023/03/16 05:38:35;;;;;;;;;5.50;5.25;;;;;7.13;52.36;100920.50;5058086;28;45509;-70
2023/03/16 05:41:03;;;;;;;;;7.75;4.75;;;;;7.24;52.15;100932.00;5055303;28;45576;-69
2023/03/16 05:43:29;;;;;;;;;6.00;5.50;;;;;7.35;51.54;100926.97;5057848;28;45625;-70
2023/03/16 05:45:56;;;;;;;;;7.75;5.25;;;;;7.37;51.21;100925.28;5077402;28;46537;-70
2023/03/16 05:48:24;;;;;;;;;7.50;3.75;;;;;7.28;51.21;100912.97;5077441;27;45409;-70
2023/03/16 05:50:51;;;;;;;;;7.00;4.00;;;;;7.33;51.08;100911.34;5077855;28;45650;-70
2023/03/16 05:53:17;;;;;;;;;6.00;5.00;;;;;7.31;51.21;100910.44;5057739;28;45502;-71
2023/03/16 05:55:43;;;;;;;;;4.75;4.00;;;;;7.36;51.12;100920.94;5073031;28;45602;-70
2023/03/16 05:58:08;;;;;;;;;4.00;4.00;;;;;7.21;51.08;100880.72;5073496;28;46282;-70
2023/03/16 06:00:34;;;;;;;;;4.00;4.00;;;;;7.50;51.03;100935.09;5073717;28;45577;-69
2023/03/16 06:03:00;;;;;;;;;6.25;3.75;;;;;7.46;51.14;100930.66;5061968;28;45594;-70
2023/03/16 06:05:27;;;;;;;;;6.25;3.50;;;;;7.40;50.60;100912.31;5058011;28;45504;-70
2023/03/16 06:07:53;;;;;;;;;4.50;4.00;;;;;7.48;50.79;100925.50;5058718;28;45455;-69
2023/03/16 06:10:19;;;;;;;;;5.50;3.50;;;;;7.46;50.42;100912.44;5039024;28;45324;-70
2023/03/16 06:12:45;;;;;;;;;4.00;3.00;;;;;7.55;50.13;100927.34;5055434;28;45347;-69
2023/03/16 06:15:12;;;;;;;;;4.00;4.00;;;;;7.56;50.42;100924.75;5076170;27;45378;-70
2023/03/16 06:17:38;;;;;;;;;6.25;5.00;;;;;7.55;50.21;100930.84;5076431;28;45591;-69
2023/03/16 06:20:10;;;;;;;;;4.50;2.75;;;;;7.47;50.14;100929.81;5081413;28;45395;-71
2023/03/16 06:22:44;;;;;;;;;6.00;5.25;;;;;7.47;50.10;100918.50;5079616;28;45454;-70
2023/03/16 06:25:11;;;;;;;;;4.50;3.50;;;;;7.49;50.19;100930.72;5075466;27;45745;-71
2023/03/16 06:27:37;;;;;;;;;5.50;5.50;;;;;7.40;50.07;100913.22;5076365;28;45346;-69
2023/03/16 06:30:05;;;;;;;;;7.00;4.25;;;;;7.49;49.71;100927.25;5061686;28;45532;-70
2023/03/16 06:32:31;;;;;;;;;7.00;7.00;;;;;7.31;49.88;100893.91;5081234;27;45418;-70
2023/03/16 06:34:58;;;;;;;;;3.75;3.50;;;;;7.56;49.96;100918.66;5061139;28;46820;-71
2023/03/16 06:37:24;;;;;;;;;7.00;5.50;;;;;7.61;50.08;100928.31;5076566;28;45442;-69
2023/03/16 06:39:50;;;;;;;;;8.50;4.00;;;;;7.59;49.71;100929.13;5078719;28;45850;-71
2023/03/16 06:42:15;;;;;;;;;4.50;2.50;;;;;7.54;49.83;100925.59;5080592;28;45635;-71
2023/03/16 06:44:41;;;;;;;;;5.50;5.50;;;;;7.59;49.57;100929.13;5075872;27;46307;-71
2023/03/16 06:47:07;;;;;;;;;6.50;4.75;;;;;7.58;49.50;100925.66;5075830;28;45622;-70
2023/03/16 06:49:33;;;;;;;;;6.75;4.00;;;;;7.53;49.24;100916.03;5076285;27;45474;-69
2023/03/16 06:51:59;;;;;;;;;8.50;4.00;;;;;7.52;49.91;100917.75;5076924;28;45612;-70
2023/03/16 06:54:25;;;;;;;;;5.00;5.00;;;;;7.65;49.86;100935.34;5075545;28;45834;-70
2023/03/16 06:56:53;;;;;;;;;8.50;4.00;;;;;7.67;49.90;100911.91;5075616;27;45433;-70
2023/03/16 06:59:19;;;;;;;;;4.00;4.00;;;;;7.84;49.79;100920.88;5057117;28;45497;-69
2023/03/16 07:01:44;;;;;;;;;8.00;4.00;;;;;7.95;49.52;100920.16;5077289;28;45390;-71
2023/03/16 07:04:13;;;;;;;;;5.00;5.00;;;;;7.93;49.47;100912.34;5080138;27;45476;-70
2023/03/16 07:06:40;;;;;;;;;8.75;7.00;;;;;7.96;48.96;100895.84;5042069;28;45443;-70
2023/03/16 07:09:06;;;;;;;;;4.00;4.00;;;;;8.03;49.19;100901.19;5074810;28;45461;-71
2023/03/16 07:11:32;;;;;;;;;5.50;5.50;;;;;7.86;48.80;100884.41;5062740;28;45516;-70
2023/03/16 07:13:58;;;;;;;;;4.75;3.00;;;;;8.00;48.92;100908.09;5075145;27;45472;-70
2023/03/16 07:16:24;;;;;;;;;7.25;5.75;;;;;8.01;48.80;100896.78;5079685;27;45402;-70
2023/03/16 07:18:51;;;;;;;;;5.50;5.50;;;;;8.02;48.69;100903.75;5079629;27;45535;-71
2023/03/16 07:21:17;;;;;;;;;5.50;5.50;;;;;8.18;49.11;100923.13;5079628;28;45563;-71
2023/03/16 07:23:43;;;;;;;;;4.50;4.00;;;;;8.17;47.95;100906.59;5079751;28;45660;-70
2023/03/16 07:26:10;;;;;;;;;6.50;4.50;;;;;8.15;48.36;100889.19;5061410;28;45378;-70
2023/03/16 07:28:37;;;;;;;;;6.00;3.50;;;;;8.30;48.34;100902.44;5061175;28;45570;-70
2023/03/16 07:31:03;;;;;;;;;4.00;3.00;;;;;8.46;47.86;100900.94;5061469;28;45566;-71
2023/03/16 07:33:31;;;;;;;;;4.75;3.00;;;;;8.59;47.59;100899.34;5061419;28;45929;-69
2023/03/16 07:35:56;;;;;;;;;3.25;3.00;;;;;8.62;47.05;100896.81;5061733;28;46234;-70
2023/03/16 07:38:22;;;;;;;;;4.00;4.00;;;;;8.62;47.37;100889.84;5076858;28;45640;-69
2023/03/16 07:40:48;;;;;;;;;4.50;4.50;;;;;8.61;47.04;100879.38;5075015;27;45490;-72
2023/03/16 07:43:14;;;;;;;;;2.50;2.50;;;;;8.68;46.81;100875.97;5075365;27;46263;-71
2023/03/16 07:45:40;;;;;;;;;3.00;3.00;;;;;8.70;46.87;100885.56;5073857;27;45858;-72
2023/03/16 07:48:06;;;;;;;;;3.00;3.00;;;;;8.74;46.79;100876.06;5057361;28;45608;-70
2023/03/16 07:50:32;;;;;;;;;3.75;2.50;;;;;8.91;46.50;100886.69;5075137;28;45481;-70
2023/03/16 07:52:57;;;;;;;;;5.00;3.50;;;;;8.84;46.16;100871.81;5076685;28;46939;-71
2023/03/16 07:55:23;;;;;;;;;5.50;3.00;;;;;8.90;46.22;100879.75;5079059;28;45437;-70
2023/03/16 07:57:48;;;;;;;;;6.50;3.75;;;;;8.98;46.13;100896.34;5060896;28;46008;-70
2023/03/16 08:00:15;;;;;;;;;5.25;3.50;;;;;8.98;45.88;100882.41;5077896;28;45512;-71
2023/03/16 08:02:40;;;;;;;;;3.00;3.00;;;;;8.94;45.89;100871.06;5074409;27;46195;-70
2023/03/16 08:05:09;;;;;;;;;7.00;3.00;;;;;9.21;45.26;100896.59;5059950;28;45364;-71
2023/03/16 08:07:34;;;;;;;;;4.75;3.00;;;;;9.13;45.73;100877.34;5061733;28;45303;-70
2023/03/16 08:10:00;;;;;;;;;5.50;5.50;;;;;9.21;45.68;100895.75;5075338;28;45454;-71
2023/03/16 08:12:25;;;;;;;;;3.00;3.00;;;;;9.12;45.65;100875.59;5057160;28;47730;-70
2023/03/16 08:14:51;;;;;;;;;3.00;3.00;;;;;9.21;45.69;100878.31;5076127;28;45435;-71
2023/03/16 08:17:16;;;;;;;;;3.75;3.00;;;;;9.33;45.66;100880.16;5077898;28;45457;-70
2023/03/16 08:19:42;;;;;;;;;3.00;2.75;;;;;9.41;45.13;100878.50;5056867;28;45655;-71
2023/03/16 08:22:08;;;;;;;;;4.25;4.25;;;;;9.06;45.04;100828.50;5056082;28;46209;-70
2023/03/16 08:24:33;;;;;;;;;5.00;3.50;;;;;9.44;45.34;100888.97;5073583;28;45811;-71
2023/03/16 08:26:59;;;;;;;;;5.75;4.00;;;;;9.45;45.11;100882.88;5056890;28;45391;-70
2023/03/16 08:29:26;;;;;;;;;6.75;4.25;;;;;9.57;45.01;100894.31;5079686;28;45322;-69
2023/03/16 08:31:53;;;;;;;;;3.00;3.00;;;;;9.64;44.89;100893.50;5076831;28;45897;-69
2023/03/16 08:34:19;;;;;;;;;4.00;3.00;;;;;9.72;44.73;100897.06;5073920;28;45533;-70
2023/03/16 08:36:44;;;;;;;;;2.00;2.00;;;;;9.66;44.66;100871.75;5075070;28;46008;-71
2023/03/16 08:39:10;;;;;;;;;6.50;4.00;;;;;9.76;44.31;100884.00;5056369;28;45654;-69
2023/03/16 08:41:36;;;;;;;;;4.50;3.00;;;;;9.75;44.42;100874.44;5054949;28;46740;-71
2023/03/16 08:44:06;;;;;;;;;4.75;3.00;;;;;9.99;44.48;100899.03;5071568;28;45406;-71
2023/03/16 08:46:33;;;;;;;;;3.00;2.00;;;;;9.98;43.95;100889.41;5055012;28;45760;-70
2023/03/16 08:49:01;;;;;;;;;3.00;3.00;;;;;10.05;43.88;100883.34;5073598;28;45315;-71
2023/03/16 08:51:28;;;;;;;;;2.00;2.00;;;;;10.08;43.95;100891.19;5074532;28;45478;-71
2023/03/16 08:53:54;;;;;;;;;4.50;3.25;;;;;10.13;44.15;100879.06;5053420;28;45667;-70
2023/03/16 08:56:20;;;;;;;;;4.00;3.00;;;;;10.22;43.90;100883.44;5065097;28;45798;-72
2023/03/16 08:58:47;;;;;;;;;4.00;2.75;;;;;10.28;43.83;100866.91;5059713;28;45443;-70
2023/03/16 09:01:16;;;;;;;;;2.00;2.00;;;;;10.30;43.52;100863.47;5043933;28;47866;-70
2023/03/16 09:03:44;;;;;;;;;5.00;3.00;;;;;10.46;43.19;100874.00;5049735;28;45593;-70
2023/03/16 09:06:17;;;;;;;;;5.50;2.75;;;;;10.47;43.08;100867.91;5066777;28;45922;-69
2023/03/16 09:08:46;;;;;;;;;3.25;2.25;;;;;10.64;42.93;100878.47;5076731;28;45326;-71
2023/03/16 09:11:14;;;;;;;;;3.25;3.25;;;;;10.61;42.70;100861.84;5076185;28;46134;-70
2023/03/16 09:13:41;;;;;;;;;4.75;3.00;;;;;10.86;43.08;100879.41;5075977;28;45450;-71
2023/03/16 09:16:08;;;;;;;;;5.00;3.00;;;;;11.01;42.46;100874.22;5055716;28;45496;-71
2023/03/16 09:18:35;;;;;;;;;2.75;2.75;;;;;11.14;42.22;100873.34;5069927;28;45503;-71
2023/03/16 09:21:04;;;;;;;;;2.75;2.75;;;;;11.26;42.02;100859.38;5058878;28;45364;-69
2023/03/16 09:23:33;;;;;;;;;3.00;3.00;;;;;11.41;42.20;100851.56;5058127;28;45801;-70
2023/03/16 09:26:01;;;;;;;;;2.75;2.75;;;;;11.70;41.25;100862.88;5046284;28;45520;-71
2023/03/16 09:28:30;;;;;;;;;4.00;3.00;;;;;11.86;41.40;100864.63;5053132;28;45475;-69
2023/03/16 09:30:57;;;;;;;;;3.00;3.00;;;;;11.91;40.88;100851.53;5070228;27;46417;-73
2023/03/16 09:33:28;;;;;;;;;3.00;3.00;;;;;11.98;40.86;100859.41;5070490;27;45606;-69
2023/03/16 09:35:56;;;;;;;;;4.75;3.25;;;;;12.15;40.90;100841.00;5069403;27;45243;-70
2023/03/16 09:38:27;;;;;;;;;4.75;3.00;;;;;12.28;41.39;100845.31;5071018;28;46757;-71
2023/03/16 09:41:06;;;;;;;;;2.00;1.75;;;;;12.40;40.61;100848.78;5056676;28;46871;-70
2023/03/16 09:43:48;;;;;;;;;2.50;2.50;;;;;12.53;40.63;100847.88;5075895;28;45496;-70
2023/03/16 09:46:27;;;;;;;;;2.75;2.00;;;;;12.41;39.30;100830.41;5064243;28;45450;-70
2023/03/16 09:48:56;;;;;;;;;3.25;2.00;;;;;12.34;40.17;100830.41;5039217;28;45639;-70
2023/03/16 09:51:34;;;;;;;;;4.00;2.75;;;;;12.59;40.34;100839.06;5062116;28;45482;-69
2023/03/16 09:54:02;;;;;;;;;3.50;3.00;;;;;12.69;40.48;100833.78;5073507;28;45327;-69
2023/03/16 09:56:36;;;;;;;;;2.00;1.25;;;;;12.68;40.18;100824.13;5068867;28;45479;-70
2023/03/16 09:59:12;;;;;;;;;3.50;3.25;;;;;12.59;39.97;100818.94;5068820;28;45410;-71
2023/03/16 10:02:20;;;;;;;;;4.00;2.25;;;;;12.70;39.54;100846.03;5059176;28;46222;-71
2023/03/16 10:05:12;;;;;;;;;3.00;2.25;;;;;12.67;40.05;100826.75;5059395;28;45871;-70
2023/03/16 10:08:06;;;;;;;;;3.25;2.00;;;;;12.86;40.15;100825.81;5067907;28;45551;-69
2023/03/16 10:10:45;;;;;;;;;5.75;2.50;;;;;13.01;39.89;100830.09;5069219;27;45756;-71
2023/03/16 10:13:32;;;;;;;;;2.75;2.00;;;;;13.30;39.69;100827.28;5065545;28;47930;-71
2023/03/16 10:16:04;;;;;;;;;1.25;1.25;;;;;13.37;39.00;100804.44;5073215;28;45347;-70
2023/03/16 10:18:43;;;;;;;;;2.00;1.00;;;;;13.58;38.51;100825.28;5073893;27;45411;-74
2023/03/16 10:21:18;;;;;;;;;1.33;1.33;;;;;13.69;38.68;100809.41;5051014;28;45758;-72
2023/03/16 10:23:46;;;;;;;;;3.67;2.00;;;;;13.86;38.03;100813.63;5059128;28;46975;-71
2023/03/16 10:26:32;;;;;;;;;2.67;2.00;;;;;14.11;38.64;100807.19;5076593;28;45763;-71
2023/03/16 10:28:59;;;;;;;;;1.67;1.00;;;;;14.09;37.94;100771.22;5068210;27;45492;-70
2023/03/16 10:31:27;;;;;;;;;2.00;2.00;;;;;14.42;38.10;100788.38;5074902;28;45417;-71
2023/03/16 10:34:03;;;;;;;;;2.00;2.00;;;;;14.69;38.38;100800.38;5066597;28;46244;-70
2023/03/16 10:36:32;;;;;;;;;3.33;2.33;;;;;15.00;37.74;100794.66;5069177;28;45493;-68
2023/03/16 10:39:04;;;;;;;;;3.00;3.00;;;;;15.28;37.04;100792.44;5066508;28;45353;-69
2023/03/16 10:41:36;;;;;;;;;7.33;7.33;;;;;15.50;36.62;100800.00;5070365;28;46557;-69
2023/03/16 10:44:15;;;;;;;;;32.50;25.25;;;;;15.57;36.15;100791.94;5046975;28;45492;-68
2023/03/16 10:46:48;;;;;;;;;21.50;19.50;;;;;15.88;35.67;100792.28;5062470;28;45380;-70
2023/03/16 10:49:26;;;;;;;;;12.33;11.00;;;;;16.06;35.66;100791.06;5069813;28;45434;-68
2023/03/16 10:51:56;;;;;;;;;4.00;4.00;;;;;16.19;35.38;100772.31;5073581;28;45804;-68
2023/03/16 10:54:38;;;;;;;;;5.67;3.67;;;;;16.06;35.03;100774.31;5070035;28;45384;-68
2023/03/16 10:57:24;;;;;;;;;4.67;3.33;;;;;16.28;34.77;100774.75;5076283;28;45401;-70
2023/03/16 10:59:52;;;;;;;;;2.00;2.00;;;;;16.15;34.58;100778.56;5056969;28;45506;-69
2023/03/16 11:02:29;;;;;;;;;6.33;2.67;;;;;16.00;34.56;100751.53;5053324;28;45406;-69
2023/03/16 11:04:54;;;;;;;;;2.00;2.00;;;;;16.26;34.62;100756.28;5072234;28;46002;-68
2023/03/16 11:07:23;;;;;;;;;2.67;2.67;;;;;16.49;34.50;100761.09;5051923;28;45387;-69
2023/03/16 11:09:51;;;;;;;;;3.33;3.33;;;;;16.66;34.22;100755.41;5075599;28;46220;-68
2023/03/16 11:12:30;;;;;;;;;2.00;2.00;;;;;16.92;34.09;100746.03;5057165;28;45480;-68
2023/03/16 11:15:11;;;;;;;;;6.00;4.00;;;;;17.54;33.24;100738.28;5054771;28;48066;-67
2023/03/16 11:17:43;;;;;;;;;2.00;1.33;;;;;19.22;31.06;100743.88;5072796;28;45484;-68
2023/03/16 11:20:27;;;;;;;;;3.00;2.00;;;;;20.96;27.87;100725.03;5056162;28;45515;-69
2023/03/16 11:22:53;;;;;;;;;3.00;3.00;;;;;22.21;27.09;100725.84;5073522;28;45925;-68
2023/03/16 11:25:40;;;;;;;;;4.00;3.00;;;;;23.28;25.45;100719.78;5074774;27;46406;-68
2023/03/16 11:28:10;;;;;;;;;3.00;2.00;;;;;24.05;24.47;100708.56;5077972;28;45446;-68
2023/03/16 11:30:36;;;;;;;;;4.00;2.33;;;;;24.73;23.45;100707.50;5076115;28;45520;-69
2023/03/16 11:33:02;;;;;;;;;3.00;2.33;;;;;24.21;23.67;100697.03;5073894;28;45520;-69
2023/03/16 11:35:56;;;;;;;;;4.00;3.00;;;;;23.89;24.48;100694.28;5072629;27;46575;-68
2023/03/16 11:38:47;;;;;;;;;2.00;2.00;;;;;23.98;23.83;100692.94;5057703;28;45582;-67